Wrangell, AK

5:26 PM AKDT on July 25, 2016 (GMT -0800)
Wrangell | | Change Station

Elev 43 ft 56.48 °N, 132.37 °W | Updated 10 minutes ago

Mostly Cloudy
Mostly Cloudy
57 °F
Feels Like 57 °F
N
4
Wind Variable Wind from NW

Today
High -- | Low -- °F
--% Chance of Precip.
Yesterday
High -- | Low -- °F
Precip. -- in
Pressure 30.17 in
Visibility 10.0 miles
Clouds Scattered Clouds 4000 ft
Mostly Cloudy 5800 ft
Mostly Cloudy 6500 ft
Dew Point 50 °F
Humidity 77%
Rainfall 0.26 in
Snow Depth Not available.
4:39 AM 9:11 PM
Waning Gibbous, 60% visible
METAR PAWG 260116Z 31003KT 10SM SCT040 BKN058 BKN065 14/10 A3017 RMK AO1 WEA:NONE BS
Pressure 30.17 in
Visibility 10.0 miles
Clouds Scattered Clouds 4000 ft
Mostly Cloudy 5800 ft
Mostly Cloudy 6500 ft
Dew Point 50 °F
Humidity 77%
Rainfall 0.26 in
Snow Depth Not available.
4:39 AM 9:11 PM
Waning Gibbous, 60% visible
METAR PAWG 260116Z 31003KT 10SM SCT040 BKN058 BKN065 14/10 A3017 RMK AO1 WEA:NONE BS

10-Day Weather Forecast

Almanac

Astronomy

Jul. 25, 2016 Rise Set
Actual Time
Civil Twilight
Nautical Twilight
Astronomical Twilight
Moon
Length of Visible Light
Length of Day
Tomorrow will be .
, % of the Moon is Illuminated

Today's Extremes

State Highs State Lows

Community

WunderPhotos

Upload Photos

1,927,487 photos uploaded!

WunderBlog® & News

Nearby

Air Quality

  Air Quality AQ Index Pollutant
Not available.

Snow Depth

Station Depth Elevation

Earthquake Activity

City Distance Mag. Time & Date
Minimum magnitude displayed is 2.5.

Coastal Water Temperatures

Place Temperature

Stations

Nearby Weather Stations

Station Location Temp. Windchill Dew Point Humidity Wind Precip. Elev Updated Type
                   

Watches & Warnings

There are currently no watches in effect.